sensor_id;sensor_type;location;lat;lon;timestamp;pressure;altitude;pressure_sealevel;temperature;humidity
24558;BME280;12726;49.148;8.582;2023-09-19T00:01:39;99898.38;;;16.57;100.00
24558;BME280;12726;49.148;8.582;2023-09-19T00:04:25;99907.94;;;16.59;100.00
24558;BME280;12726;49.148;8.582;2023-09-19T00:07:12;99909.00;;;16.53;100.00
24558;BME280;12726;49.148;8.582;2023-09-19T00:09:58;99913.88;;;16.56;100.00
24558;BME280;12726;49.148;8.582;2023-09-19T00:12:44;99920.47;;;16.60;100.00
24558;BME280;12726;49.148;8.582;2023-09-19T00:15:29;99917.78;;;16.65;100.00
24558;BME280;12726;49.148;8.582;2023-09-19T00:18:17;99928.38;;;16.67;100.00
24558;BME280;12726;49.148;8.582;2023-09-19T00:21:05;99925.38;;;16.63;100.00
24558;BME280;12726;49.148;8.582;2023-09-19T00:23:50;99932.97;;;16.61;100.00
24558;BME280;12726;49.148;8.582;2023-09-19T00:26:36;99918.59;;;16.66;100.00
24558;BME280;12726;49.148;8.582;2023-09-19T00:29:22;99926.50;;;16.67;100.00
24558;BME280;12726;49.148;8.582;2023-09-19T00:32:08;99928.63;;;16.60;100.00
24558;BME280;12726;49.148;8.582;2023-09-19T00:34:55;99925.03;;;16.55;100.00
24558;BME280;12726;49.148;8.582;2023-09-19T00:37:40;99930.16;;;16.51;100.00
24558;BME280;12726;49.148;8.582;2023-09-19T00:40:26;99925.53;;;16.52;100.00
24558;BME280;12726;49.148;8.582;2023-09-19T00:43:11;99916.56;;;16.51;100.00
24558;BME280;12726;49.148;8.582;2023-09-19T00:45:57;99929.31;;;16.45;100.00
24558;BME280;12726;49.148;8.582;2023-09-19T00:48:45;99939.13;;;16.47;100.00
24558;BME280;12726;49.148;8.582;2023-09-19T00:51:32;99944.72;;;16.35;100.00
24558;BME280;12726;49.148;8.582;2023-09-19T00:54:17;99945.53;;;16.35;100.00
24558;BME280;12726;49.148;8.582;2023-09-19T00:57:03;99953.22;;;16.43;100.00
24558;BME280;12726;49.148;8.582;2023-09-19T00:59:50;99957.00;;;16.42;100.00
24558;BME280;12726;49.148;8.582;2023-09-19T01:02:37;99961.94;;;16.51;100.00
24558;BME280;12726;49.148;8.582;2023-09-19T01:05:23;99962.19;;;16.44;100.00
24558;BME280;12726;49.148;8.582;2023-09-19T01:08:11;99968.47;;;16.50;100.00
24558;BME280;12726;49.148;8.582;2023-09-19T01:11:01;99966.81;;;16.49;100.00
24558;BME280;12726;49.148;8.582;2023-09-19T01:13:55;99963.22;;;16.38;100.00
24558;BME280;12726;49.148;8.582;2023-09-19T01:16:49;99978.47;;;16.39;100.00
24558;BME280;12726;49.148;8.582;2023-09-19T01:20:05;99979.22;;;16.34;100.00
24558;BME280;12726;49.148;8.582;2023-09-19T01:23:04;99987.19;;;16.41;100.00
24558;BME280;12726;49.148;8.582;2023-09-19T01:26:14;99987.72;;;16.43;100.00
24558;BME280;12726;49.148;8.582;2023-09-19T01:29:16;99982.28;;;16.43;100.00
24558;BME280;12726;49.148;8.582;2023-09-19T01:32:05;99993.97;;;16.43;100.00
24558;BME280;12726;49.148;8.582;2023-09-19T01:34:53;99991.00;;;16.45;100.00
24558;BME280;12726;49.148;8.582;2023-09-19T01:37:40;99983.44;;;16.52;100.00
24558;BME280;12726;49.148;8.582;2023-09-19T01:40:27;99986.16;;;16.52;100.00
24558;BME280;12726;49.148;8.582;2023-09-19T01:43:18;99987.78;;;16.48;100.00
24558;BME280;12726;49.148;8.582;2023-09-19T01:46:09;99987.19;;;16.46;100.00
24558;BME280;12726;49.148;8.582;2023-09-19T01:49:06;99987.22;;;16.51;100.00
24558;BME280;12726;49.148;8.582;2023-09-19T01:52:02;99991.63;;;16.57;100.00
24558;BME280;12726;49.148;8.582;2023-09-19T01:54:50;99993.22;;;16.53;100.00
24558;BME280;12726;49.148;8.582;2023-09-19T01:57:42;99989.97;;;16.56;100.00
24558;BME280;12726;49.148;8.582;2023-09-19T02:00:34;99995.50;;;16.61;100.00
24558;BME280;12726;49.148;8.582;2023-09-19T02:03:21;99997.66;;;16.64;100.00
24558;BME280;12726;49.148;8.582;2023-09-19T02:06:13;100004.72;;;16.60;100.00
24558;BME280;12726;49.148;8.582;2023-09-19T02:09:00;100000.34;;;16.59;100.00
24558;BME280;12726;49.148;8.582;2023-09-19T02:11:46;100006.59;;;16.60;100.00
24558;BME280;12726;49.148;8.582;2023-09-19T02:14:32;100007.47;;;16.65;100.00
24558;BME280;12726;49.148;8.582;2023-09-19T02:17:18;100006.66;;;16.65;100.00
24558;BME280;12726;49.148;8.582;2023-09-19T02:20:04;100019.97;;;16.61;100.00
24558;BME280;12726;49.148;8.582;2023-09-19T02:22:56;100023.78;;;16.70;100.00
24558;BME280;12726;49.148;8.582;2023-09-19T02:25:41;100022.44;;;16.68;100.00
24558;BME280;12726;49.148;8.582;2023-09-19T02:28:27;100024.38;;;16.77;100.00
24558;BME280;12726;49.148;8.582;2023-09-19T02:31:13;100024.44;;;16.82;100.00
24558;BME280;12726;49.148;8.582;2023-09-19T02:34:00;100032.31;;;16.84;100.00
24558;BME280;12726;49.148;8.582;2023-09-19T02:36:46;100033.94;;;16.85;100.00
24558;BME280;12726;49.148;8.582;2023-09-19T02:39:33;100037.16;;;16.77;100.00
24558;BME280;12726;49.148;8.582;2023-09-19T02:42:18;100039.69;;;16.83;100.00
24558;BME280;12726;49.148;8.582;2023-09-19T02:45:04;100038.03;;;16.82;100.00
24558;BME280;12726;49.148;8.582;2023-09-19T02:47:49;100027.94;;;16.78;100.00
24558;BME280;12726;49.148;8.582;2023-09-19T02:50:35;100039.63;;;16.78;100.00
24558;BME280;12726;49.148;8.582;2023-09-19T02:53:20;100047.28;;;16.81;100.00
24558;BME280;12726;49.148;8.582;2023-09-19T02:56:07;100033.38;;;16.78;100.00
24558;BME280;12726;49.148;8.582;2023-09-19T02:58:53;100046.97;;;16.78;100.00
24558;BME280;12726;49.148;8.582;2023-09-19T03:01:39;100043.13;;;16.74;100.00
24558;BME280;12726;49.148;8.582;2023-09-19T03:04:25;100052.94;;;16.75;100.00
24558;BME280;12726;49.148;8.582;2023-09-19T03:07:11;100048.81;;;16.72;100.00
24558;BME280;12726;49.148;8.582;2023-09-19T03:09:56;100057.72;;;16.63;100.00
24558;BME280;12726;49.148;8.582;2023-09-19T03:12:43;100059.28;;;16.54;100.00
24558;BME280;12726;49.148;8.582;2023-09-19T03:15:29;100053.78;;;16.49;100.00
24558;BME280;12726;49.148;8.582;2023-09-19T03:18:14;100063.88;;;16.53;100.00
24558;BME280;12726;49.148;8.582;2023-09-19T03:20:59;100067.50;;;16.64;100.00
24558;BME280;12726;49.148;8.582;2023-09-19T03:23:45;100057.91;;;16.56;100.00
24558;BME280;12726;49.148;8.582;2023-09-19T03:26:30;100057.31;;;16.49;100.00
24558;BME280;12726;49.148;8.582;2023-09-19T03:29:18;100055.41;;;16.50;100.00
24558;BME280;12726;49.148;8.582;2023-09-19T03:32:04;100062.44;;;16.40;100.00
24558;BME280;12726;49.148;8.582;2023-09-19T03:34:49;100064.53;;;16.33;100.00
24558;BME280;12726;49.148;8.582;2023-09-19T03:37:35;100067.19;;;16.28;100.00
24558;BME280;12726;49.148;8.582;2023-09-19T03:40:20;100069.56;;;16.20;100.00
24558;BME280;12726;49.148;8.582;2023-09-19T03:43:07;100070.91;;;16.17;100.00
24558;BME280;12726;49.148;8.582;2023-09-19T03:45:53;100069.00;;;16.18;100.00
24558;BME280;12726;49.148;8.582;2023-09-19T03:48:39;100060.59;;;16.19;100.00
24558;BME280;12726;49.148;8.582;2023-09-19T03:51:24;100065.25;;;16.24;100.00
24558;BME280;12726;49.148;8.582;2023-09-19T03:54:10;100069.56;;;16.20;100.00
24558;BME280;12726;49.148;8.582;2023-09-19T03:56:55;100067.13;;;16.18;100.00
24558;BME280;12726;49.148;8.582;2023-09-19T03:59:40;100070.06;;;16.17;100.00
24558;BME280;12726;49.148;8.582;2023-09-19T04:02:28;100069.25;;;16.16;100.00
24558;BME280;12726;49.148;8.582;2023-09-19T04:05:17;100082.84;;;16.16;100.00
24558;BME280;12726;49.148;8.582;2023-09-19T04:08:03;100080.91;;;16.12;100.00
24558;BME280;12726;49.148;8.582;2023-09-19T04:10:48;100078.13;;;16.06;100.00
24558;BME280;12726;49.148;8.582;2023-09-19T04:13:33;100091.44;;;16.08;100.00
24558;BME280;12726;49.148;8.582;2023-09-19T04:16:19;100088.16;;;16.06;100.00
24558;BME280;12726;49.148;8.582;2023-09-19T04:19:05;100091.16;;;16.04;100.00
24558;BME280;12726;49.148;8.582;2023-09-19T04:21:51;100105.81;;;16.03;100.00
24558;BME280;12726;49.148;8.582;2023-09-19T04:24:36;100107.94;;;16.01;100.00
24558;BME280;12726;49.148;8.582;2023-09-19T04:27:21;100113.38;;;16.01;100.00
24558;BME280;12726;49.148;8.582;2023-09-19T04:30:08;100113.91;;;15.98;100.00
24558;BME280;12726;49.148;8.582;2023-09-19T04:32:55;100123.13;;;15.97;100.00
24558;BME280;12726;49.148;8.582;2023-09-19T04:35:42;100123.13;;;15.97;100.00
24558;BME280;12726;49.148;8.582;2023-09-19T04:38:27;100125.84;;;15.97;100.00
24558;BME280;12726;49.148;8.582;2023-09-19T04:41:13;100125.84;;;15.97;100.00
24558;BME280;12726;49.148;8.582;2023-09-19T04:43:59;100130.19;;;15.98;100.00
24558;BME280;12726;49.148;8.582;2023-09-19T04:46:44;100133.00;;;16.09;100.00
24558;BME280;12726;49.148;8.582;2023-09-19T04:49:30;100137.03;;;16.06;100.00
24558;BME280;12726;49.148;8.582;2023-09-19T04:52:16;100138.97;;;16.05;100.00
24558;BME280;12726;49.148;8.582;2023-09-19T04:55:03;100131.59;;;16.06;100.00
24558;BME280;12726;49.148;8.582;2023-09-19T04:57:50;100145.25;;;16.11;100.00
24558;BME280;12726;49.148;8.582;2023-09-19T05:00:36;100135.47;;;16.10;100.00
24558;BME280;12726;49.148;8.582;2023-09-19T05:03:22;100149.88;;;16.11;100.00
24558;BME280;12726;49.148;8.582;2023-09-19T05:06:08;100150.94;;;16.10;100.00
24558;BME280;12726;49.148;8.582;2023-09-19T05:08:55;100146.91;;;16.12;100.00
24558;BME280;12726;49.148;8.582;2023-09-19T05:11:40;100149.09;;;16.15;100.00
24558;BME280;12726;49.148;8.582;2023-09-19T05:14:26;100148.03;;;16.16;100.00
24558;BME280;12726;49.148;8.582;2023-09-19T05:17:11;100142.91;;;16.20;100.00
24558;BME280;12726;49.148;8.582;2023-09-19T05:19:56;100149.97;;;16.21;100.00
24558;BME280;12726;49.148;8.582;2023-09-19T05:22:42;100146.69;;;16.19;100.00
24558;BME280;12726;49.148;8.582;2023-09-19T05:25:32;100161.03;;;16.14;100.00
24558;BME280;12726;49.148;8.582;2023-09-19T05:28:21;100156.41;;;16.15;100.00
24558;BME280;12726;49.148;8.582;2023-09-19T05:31:06;100170.56;;;16.17;100.00
24558;BME280;12726;49.148;8.582;2023-09-19T05:33:51;100180.38;;;16.18;100.00
24558;BME280;12726;49.148;8.582;2023-09-19T05:36:38;100173.03;;;16.18;100.00
24558;BME280;12726;49.148;8.582;2023-09-19T05:39:23;100167.59;;;16.18;100.00
24558;BME280;12726;49.148;8.582;2023-09-19T05:42:10;100182.25;;;16.17;100.00
24558;BME280;12726;49.148;8.582;2023-09-19T05:44:55;100182.00;;;16.19;100.00
24558;BME280;12726;49.148;8.582;2023-09-19T05:47:41;100189.13;;;16.25;100.00
24558;BME280;12726;49.148;8.582;2023-09-19T05:50:29;100193.06;;;16.34;100.00
24558;BME280;12726;49.148;8.582;2023-09-19T05:53:16;100199.41;;;16.44;100.00
24558;BME280;12726;49.148;8.582;2023-09-19T05:56:02;100208.41;;;16.50;100.00
24558;BME280;12726;49.148;8.582;2023-09-19T05:58:49;100204.16;;;16.59;100.00
24558;BME280;12726;49.148;8.582;2023-09-19T06:01:36;100203.16;;;16.65;100.00
24558;BME280;12726;49.148;8.582;2023-09-19T06:04:22;100197.00;;;16.75;100.00
24558;BME280;12726;49.148;8.582;2023-09-19T06:07:10;100210.41;;;16.81;100.00
24558;BME280;12726;49.148;8.582;2023-09-19T06:09:56;100209.03;;;16.84;100.00
24558;BME280;12726;49.148;8.582;2023-09-19T06:12:42;100203.34;;;16.86;100.00
24558;BME280;12726;49.148;8.582;2023-09-19T06:15:29;100206.94;;;16.91;100.00
24558;BME280;12726;49.148;8.582;2023-09-19T06:18:16;100202.66;;;17.00;100.00
24558;BME280;12726;49.148;8.582;2023-09-19T06:21:03;100212.72;;;17.00;100.00
24558;BME280;12726;49.148;8.582;2023-09-19T06:23:51;100205.38;;;17.00;100.00
24558;BME280;12726;49.148;8.582;2023-09-19T06:26:36;100208.41;;;17.04;100.00
24558;BME280;12726;49.148;8.582;2023-09-19T06:29:22;100218.22;;;17.05;100.00
24558;BME280;12726;49.148;8.582;2023-09-19T06:32:09;100225.59;;;17.09;100.00
24558;BME280;12726;49.148;8.582;2023-09-19T06:34:54;100229.75;;;17.17;100.00
24558;BME280;12726;49.148;8.582;2023-09-19T06:37:40;100233.19;;;17.07;100.00
24558;BME280;12726;49.148;8.582;2023-09-19T06:40:26;100232.44;;;17.12;100.00
24558;BME280;12726;49.148;8.582;2023-09-19T06:43:11;100247.72;;;17.18;100.00
24558;BME280;12726;49.148;8.582;2023-09-19T06:45:58;100254.25;;;17.22;100.00
24558;BME280;12726;49.148;8.582;2023-09-19T06:48:45;100258.13;;;17.26;100.00
24558;BME280;12726;49.148;8.582;2023-09-19T06:51:31;100251.88;;;17.31;100.00
24558;BME280;12726;49.148;8.582;2023-09-19T06:54:16;100247.31;;;17.41;100.00
24558;BME280;12726;49.148;8.582;2023-09-19T06:57:03;100253.44;;;17.58;99.84
24558;BME280;12726;49.148;8.582;2023-09-19T06:59:48;100259.03;;;17.79;98.80
24558;BME280;12726;49.148;8.582;2023-09-19T07:02:34;100259.13;;;17.89;97.29
24558;BME280;12726;49.148;8.582;2023-09-19T07:05:21;100257.25;;;18.05;96.30
24558;BME280;12726;49.148;8.582;2023-09-19T07:08:06;100263.41;;;18.32;94.19
24558;BME280;12726;49.148;8.582;2023-09-19T07:10:53;100260.44;;;18.44;92.43
24558;BME280;12726;49.148;8.582;2023-09-19T07:13:39;100270.88;;;18.57;91.87
24558;BME280;12726;49.148;8.582;2023-09-19T07:16:24;100276.91;;;18.74;88.61
24558;BME280;12726;49.148;8.582;2023-09-19T07:19:13;100276.41;;;18.87;87.88
24558;BME280;12726;49.148;8.582;2023-09-19T07:22:00;100273.97;;;19.06;85.18
24558;BME280;12726;49.148;8.582;2023-09-19T07:24:46;100281.06;;;19.07;84.31
24558;BME280;12726;49.148;8.582;2023-09-19T07:27:32;100285.16;;;19.20;82.72
24558;BME280;12726;49.148;8.582;2023-09-19T07:30:18;100283.53;;;19.24;81.95
24558;BME280;12726;49.148;8.582;2023-09-19T07:33:04;100288.47;;;19.52;81.28
24558;BME280;12726;49.148;8.582;2023-09-19T07:35:49;100287.91;;;19.65;78.82
24558;BME280;12726;49.148;8.582;2023-09-19T07:38:36;100292.22;;;19.97;77.55
24558;BME280;12726;49.148;8.582;2023-09-19T07:41:21;100291.59;;;20.35;76.94
24558;BME280;12726;49.148;8.582;2023-09-19T07:44:06;100292.88;;;20.48;73.65
24558;BME280;12726;49.148;8.582;2023-09-19T07:46:52;100295.38;;;20.44;74.78
24558;BME280;12726;49.148;8.582;2023-09-19T07:49:38;100291.50;;;20.55;73.62
24558;BME280;12726;49.148;8.582;2023-09-19T07:52:23;100294.66;;;20.78;72.44
24558;BME280;12726;49.148;8.582;2023-09-19T07:55:10;100307.19;;;20.89;71.37
24558;BME280;12726;49.148;8.582;2023-09-19T07:58:01;100299.34;;;21.11;70.28
24558;BME280;12726;49.148;8.582;2023-09-19T08:00:48;100310.91;;;21.08;68.99
24558;BME280;12726;49.148;8.582;2023-09-19T08:03:34;100308.81;;;20.90;68.81
24558;BME280;12726;49.148;8.582;2023-09-19T08:06:24;100318.13;;;20.89;69.24
24558;BME280;12726;49.148;8.582;2023-09-19T08:09:13;100314.47;;;20.59;68.84
24558;BME280;12726;49.148;8.582;2023-09-19T08:12:08;100328.56;;;20.82;70.40
24558;BME280;12726;49.148;8.582;2023-09-19T08:14:54;100330.47;;;20.86;69.67
24558;BME280;12726;49.148;8.582;2023-09-19T08:17:40;100316.75;;;20.91;68.73
24558;BME280;12726;49.148;8.582;2023-09-19T08:20:25;100322.72;;;20.98;67.86
24558;BME280;12726;49.148;8.582;2023-09-19T08:23:11;100326.72;;;21.11;67.65
24558;BME280;12726;49.148;8.582;2023-09-19T08:25:57;100328.66;;;21.10;66.16
24558;BME280;12726;49.148;8.582;2023-09-19T08:28:51;100329.75;;;21.15;64.96
24558;BME280;12726;49.148;8.582;2023-09-19T08:31:37;100339.09;;;21.08;66.39
24558;BME280;12726;49.148;8.582;2023-09-19T08:34:23;100339.22;;;21.32;66.30
24558;BME280;12726;49.148;8.582;2023-09-19T08:37:08;100341.97;;;21.66;65.00
24558;BME280;12726;49.148;8.582;2023-09-19T08:39:54;100348.28;;;21.67;65.00
24558;BME280;12726;49.148;8.582;2023-09-19T08:42:49;100338.16;;;21.62;64.57
24558;BME280;12726;49.148;8.582;2023-09-19T08:45:36;100342.56;;;21.92;63.18
24558;BME280;12726;49.148;8.582;2023-09-19T08:48:23;100349.22;;;21.52;63.42
24558;BME280;12726;49.148;8.582;2023-09-19T08:51:15;100340.53;;;20.96;65.33
24558;BME280;12726;49.148;8.582;2023-09-19T08:54:05;100350.53;;;21.16;64.63
24558;BME280;12726;49.148;8.582;2023-09-19T08:56:53;100339.97;;;21.43;64.38
24558;BME280;12726;49.148;8.582;2023-09-19T08:59:41;100350.81;;;21.14;63.13
24558;BME280;12726;49.148;8.582;2023-09-19T09:02:29;100351.25;;;21.36;62.18
24558;BME280;12726;49.148;8.582;2023-09-19T09:05:17;100357.00;;;21.69;61.71
24558;BME280;12726;49.148;8.582;2023-09-19T09:08:07;100349.25;;;22.10;58.65
24558;BME280;12726;49.148;8.582;2023-09-19T09:10:52;100345.41;;;22.35;58.95
24558;BME280;12726;49.148;8.582;2023-09-19T09:13:38;100343.84;;;22.76;57.43
24558;BME280;12726;49.148;8.582;2023-09-19T09:16:25;100339.03;;;22.63;57.31
24558;BME280;12726;49.148;8.582;2023-09-19T09:19:12;100343.63;;;22.91;56.06
24558;BME280;12726;49.148;8.582;2023-09-19T09:22:06;100348.25;;;22.24;57.98
24558;BME280;12726;49.148;8.582;2023-09-19T09:24:52;100341.81;;;21.81;59.11
24558;BME280;12726;49.148;8.582;2023-09-19T09:27:40;100338.81;;;21.49;60.62
24558;BME280;12726;49.148;8.582;2023-09-19T09:30:33;100340.22;;;22.09;59.21
24558;BME280;12726;49.148;8.582;2023-09-19T09:33:18;100342.66;;;21.48;60.23
24558;BME280;12726;49.148;8.582;2023-09-19T09:36:07;100344.75;;;22.19;58.93
24558;BME280;12726;49.148;8.582;2023-09-19T09:38:53;100347.41;;;21.37;59.44
24558;BME280;12726;49.148;8.582;2023-09-19T09:41:39;100344.34;;;21.44;59.51
24558;BME280;12726;49.148;8.582;2023-09-19T09:44:24;100336.63;;;21.46;59.96
24558;BME280;12726;49.148;8.582;2023-09-19T09:47:11;100344.28;;;21.83;56.95
24558;BME280;12726;49.148;8.582;2023-09-19T09:50:23;100340.22;;;21.80;54.27
24558;BME280;12726;49.148;8.582;2023-09-19T09:53:24;100329.09;;;21.67;53.70
24558;BME280;12726;49.148;8.582;2023-09-19T09:56:11;100338.94;;;21.34;56.57
24558;BME280;12726;49.148;8.582;2023-09-19T09:58:58;100334.06;;;22.22;53.27
24558;BME280;12726;49.148;8.582;2023-09-19T10:01:46;100337.63;;;22.89;51.88
24558;BME280;12726;49.148;8.582;2023-09-19T10:04:32;100337.47;;;22.57;52.04
24558;BME280;12726;49.148;8.582;2023-09-19T10:07:27;100336.31;;;22.87;51.72
24558;BME280;12726;49.148;8.582;2023-09-19T10:10:30;100338.97;;;23.11;50.77
24558;BME280;12726;49.148;8.582;2023-09-19T10:13:25;100344.59;;;24.03;49.43
24558;BME280;12726;49.148;8.582;2023-09-19T10:16:11;100335.47;;;24.07;48.89
24558;BME280;12726;49.148;8.582;2023-09-19T10:19:02;100344.28;;;24.64;49.71
24558;BME280;12726;49.148;8.582;2023-09-19T10:21:47;100325.78;;;24.92;48.46
24558;BME280;12726;49.148;8.582;2023-09-19T10:24:35;100338.84;;;25.00;48.34
24558;BME280;12726;49.148;8.582;2023-09-19T10:27:25;100331.66;;;25.13;47.87
24558;BME280;12726;49.148;8.582;2023-09-19T10:30:13;100325.88;;;25.59;45.87
24558;BME280;12726;49.148;8.582;2023-09-19T10:33:01;100316.97;;;25.62;46.10
24558;BME280;12726;49.148;8.582;2023-09-19T10:35:48;100320.78;;;25.74;44.83
24558;BME280;12726;49.148;8.582;2023-09-19T10:38:37;100321.25;;;24.33;45.55
24558;BME280;12726;49.148;8.582;2023-09-19T10:41:25;100327.78;;;23.91;48.00
24558;BME280;12726;49.148;8.582;2023-09-19T10:44:12;100323.94;;;24.05;48.61
24558;BME280;12726;49.148;8.582;2023-09-19T10:46:58;100315.63;;;23.46;47.34
24558;BME280;12726;49.148;8.582;2023-09-19T10:49:44;100324.63;;;22.76;49.69
24558;BME280;12726;49.148;8.582;2023-09-19T10:52:31;100321.84;;;22.57;51.12
24558;BME280;12726;49.148;8.582;2023-09-19T10:55:19;100324.28;;;22.11;51.12
24558;BME280;12726;49.148;8.582;2023-09-19T10:58:06;100326.75;;;22.37;52.43
24558;BME280;12726;49.148;8.582;2023-09-19T11:01:00;100334.41;;;22.82;50.67
24558;BME280;12726;49.148;8.582;2023-09-19T11:04:23;100323.53;;;23.15;49.92
24558;BME280;12726;49.148;8.582;2023-09-19T11:07:09;100327.09;;;22.78;49.47
24558;BME280;12726;49.148;8.582;2023-09-19T11:09:56;100314.59;;;22.43;50.58
24558;BME280;12726;49.148;8.582;2023-09-19T11:12:48;100316.06;;;22.35;50.78
24558;BME280;12726;49.148;8.582;2023-09-19T11:19:00;100316.25;;;23.05;51.51
24558;BME280;12726;49.148;8.582;2023-09-19T11:21:54;100300.13;;;23.17;50.35
24558;BME280;12726;49.148;8.582;2023-09-19T11:24:42;100301.00;;;23.96;49.06
24558;BME280;12726;49.148;8.582;2023-09-19T11:27:27;100298.47;;;24.00;48.01
24558;BME280;12726;49.148;8.582;2023-09-19T11:30:26;100288.59;;;24.12;45.93
24558;BME280;12726;49.148;8.582;2023-09-19T11:33:18;100293.38;;;23.79;46.76
24558;BME280;12726;49.148;8.582;2023-09-19T11:36:08;100293.81;;;23.68;47.00
24558;BME280;12726;49.148;8.582;2023-09-19T11:38:59;100291.19;;;24.36;47.23
24558;BME280;12726;49.148;8.582;2023-09-19T11:41:52;100280.03;;;24.69;44.53
24558;BME280;12726;49.148;8.582;2023-09-19T11:44:40;100281.50;;;24.88;44.33
24558;BME280;12726;49.148;8.582;2023-09-19T11:47:26;100278.19;;;24.64;43.70
24558;BME280;12726;49.148;8.582;2023-09-19T11:50:17;100270.16;;;23.99;45.70
24558;BME280;12726;49.148;8.582;2023-09-19T11:53:05;100267.53;;;24.08;46.33
24558;BME280;12726;49.148;8.582;2023-09-19T11:55:51;100274.06;;;24.26;46.56
24558;BME280;12726;49.148;8.582;2023-09-19T11:58:38;100260.41;;;24.34;46.45
24558;BME280;12726;49.148;8.582;2023-09-19T12:01:25;100265.81;;;24.75;46.51
24558;BME280;12726;49.148;8.582;2023-09-19T12:04:12;100266.03;;;24.79;44.53
24558;BME280;12726;49.148;8.582;2023-09-19T12:06:59;100254.78;;;24.39;45.22
24558;BME280;12726;49.148;8.582;2023-09-19T12:09:47;100257.03;;;24.24;45.71
24558;BME280;12726;49.148;8.582;2023-09-19T12:12:33;100253.97;;;24.11;45.14
24558;BME280;12726;49.148;8.582;2023-09-19T12:15:22;100252.53;;;24.14;44.98
24558;BME280;12726;49.148;8.582;2023-09-19T12:18:26;100251.09;;;24.03;44.83
24558;BME280;12726;49.148;8.582;2023-09-19T12:21:22;100248.34;;;24.03;44.35
24558;BME280;12726;49.148;8.582;2023-09-19T12:24:11;100248.56;;;24.06;44.81
24558;BME280;12726;49.148;8.582;2023-09-19T12:27:04;100247.59;;;23.56;46.08
24558;BME280;12726;49.148;8.582;2023-09-19T12:29:50;100238.44;;;23.74;46.73
24558;BME280;12726;49.148;8.582;2023-09-19T12:32:39;100238.78;;;24.14;45.72
24558;BME280;12726;49.148;8.582;2023-09-19T12:35:27;100215.28;;;24.22;45.13
24558;BME280;12726;49.148;8.582;2023-09-19T12:38:23;100236.16;;;24.36;44.49
24558;BME280;12726;49.148;8.582;2023-09-19T12:41:08;100224.25;;;24.63;44.22
24558;BME280;12726;49.148;8.582;2023-09-19T12:43:55;100202.53;;;24.62;44.92
24558;BME280;12726;49.148;8.582;2023-09-19T12:46:42;100219.44;;;24.33;44.79
24558;BME280;12726;49.148;8.582;2023-09-19T12:49:27;100231.88;;;24.44;44.40
24558;BME280;12726;49.148;8.582;2023-09-19T12:52:12;100221.31;;;24.59;45.32
24558;BME280;12726;49.148;8.582;2023-09-19T12:54:58;100223.31;;;24.68;44.15
24558;BME280;12726;49.148;8.582;2023-09-19T12:57:56;100222.03;;;24.65;43.96
24558;BME280;12726;49.148;8.582;2023-09-19T13:00:44;100215.25;;;24.35;43.97
24558;BME280;12726;49.148;8.582;2023-09-19T13:03:29;100215.66;;;24.15;44.01
24558;BME280;12726;49.148;8.582;2023-09-19T13:06:35;100213.81;;;24.38;46.22
24558;BME280;12726;49.148;8.582;2023-09-19T13:09:23;100207.78;;;24.49;43.37
24558;BME280;12726;49.148;8.582;2023-09-19T13:12:37;100213.16;;;24.54;43.54
24558;BME280;12726;49.148;8.582;2023-09-19T13:15:23;100209.63;;;24.40;44.16
24558;BME280;12726;49.148;8.582;2023-09-19T13:18:12;100213.69;;;24.56;45.61
24558;BME280;12726;49.148;8.582;2023-09-19T13:21:07;100190.41;;;24.27;45.79
24558;BME280;12726;49.148;8.582;2023-09-19T13:23:55;100205.06;;;24.36;44.83
24558;BME280;12726;49.148;8.582;2023-09-19T13:26:43;100200.81;;;24.30;44.55
24558;BME280;12726;49.148;8.582;2023-09-19T13:29:28;100203.44;;;24.35;47.06
24558;BME280;12726;49.148;8.582;2023-09-19T13:32:13;100194.56;;;24.38;44.79
24558;BME280;12726;49.148;8.582;2023-09-19T13:35:00;100197.66;;;24.23;45.16
24558;BME280;12726;49.148;8.582;2023-09-19T13:37:47;100191.81;;;24.24;45.45
24558;BME280;12726;49.148;8.582;2023-09-19T13:40:35;100189.72;;;24.21;45.55
24558;BME280;12726;49.148;8.582;2023-09-19T13:43:21;100191.00;;;24.24;45.54
24558;BME280;12726;49.148;8.582;2023-09-19T13:46:06;100180.81;;;24.10;46.14
24558;BME280;12726;49.148;8.582;2023-09-19T13:48:56;100179.81;;;23.93;46.39
24558;BME280;12726;49.148;8.582;2023-09-19T13:51:44;100180.31;;;23.81;47.53
24558;BME280;12726;49.148;8.582;2023-09-19T13:54:29;100188.78;;;23.71;46.58
24558;BME280;12726;49.148;8.582;2023-09-19T13:57:15;100181.09;;;23.40;46.77
24558;BME280;12726;49.148;8.582;2023-09-19T14:00:00;100188.53;;;23.08;47.41
24558;BME280;12726;49.148;8.582;2023-09-19T14:02:46;100190.25;;;23.03;48.42
24558;BME280;12726;49.148;8.582;2023-09-19T14:05:32;100175.06;;;22.92;48.22
24558;BME280;12726;49.148;8.582;2023-09-19T14:08:19;100185.00;;;22.88;48.95
24558;BME280;12726;49.148;8.582;2023-09-19T14:11:06;100175.50;;;22.99;48.68
24558;BME280;12726;49.148;8.582;2023-09-19T14:13:52;100172.78;;;23.13;48.38
24558;BME280;12726;49.148;8.582;2023-09-19T14:19:23;100173.94;;;23.39;48.97
24558;BME280;12726;49.148;8.582;2023-09-19T14:22:10;100166.13;;;23.47;48.17
24558;BME280;12726;49.148;8.582;2023-09-19T14:24:56;100172.25;;;23.43;47.38
24558;BME280;12726;49.148;8.582;2023-09-19T14:27:43;100178.50;;;23.30;47.70
24558;BME280;12726;49.148;8.582;2023-09-19T14:30:28;100172.53;;;23.28;48.21
24558;BME280;12726;49.148;8.582;2023-09-19T14:33:14;100171.56;;;23.19;47.61
24558;BME280;12726;49.148;8.582;2023-09-19T14:36:02;100171.47;;;23.24;48.30
24558;BME280;12726;49.148;8.582;2023-09-19T14:38:52;100169.97;;;23.46;48.69
24558;BME280;12726;49.148;8.582;2023-09-19T14:41:40;100161.19;;;23.62;48.68